sensor_id;sensor_type;location;lat;lon;timestamp;P1;durP1;ratioP1;P2;durP2;ratioP2
66127;SDS011;52925;52.436;-1.952;2024-01-15T07:11:55;3.92;;;1.00;;
66127;SDS011;52925;52.436;-1.952;2024-01-15T07:13:18;15.50;;;1.42;;
66127;SDS011;52925;52.436;-1.952;2024-01-15T07:14:38;7.63;;;1.05;;
66127;SDS011;52925;52.436;-1.952;2024-01-15T07:15:59;13.45;;;1.25;;
66127;SDS011;52925;52.436;-1.952;2024-01-15T07:17:19;10.13;;;1.23;;
66127;SDS011;52925;52.436;-1.952;2024-01-15T16:28:23;3.17;;;0.70;;
66127;SDS011;52925;52.436;-1.952;2024-01-15T16:29:44;2.70;;;0.70;;
66127;SDS011;52925;52.436;-1.952;2024-01-15T16:31:04;1.80;;;1.00;;
66127;SDS011;52925;52.436;-1.952;2024-01-15T16:32:25;3.40;;;0.90;;
66127;SDS011;52925;52.436;-1.952;2024-01-15T16:33:45;2.85;;;0.95;;
66127;SDS011;52925;52.436;-1.952;2024-01-15T16:35:06;2.20;;;0.70;;
66127;SDS011;52925;52.436;-1.952;2024-01-15T16:36:26;2.60;;;1.05;;
66127;SDS011;52925;52.436;-1.952;2024-01-15T16:37:47;4.07;;;0.82;;
66127;SDS011;52925;52.436;-1.952;2024-01-15T16:39:07;6.35;;;1.15;;
66127;SDS011;52925;52.436;-1.952;2024-01-15T16:40:27;1.45;;;0.90;;
66127;SDS011;52925;52.436;-1.952;2024-01-15T16:41:47;6.45;;;1.20;;
66127;SDS011;52925;52.436;-1.952;2024-01-15T16:43:09;2.30;;;1.20;;
66127;SDS011;52925;52.436;-1.952;2024-01-15T16:44:30;1.30;;;1.00;;
66127;SDS011;52925;52.436;-1.952;2024-01-15T16:45:50;4.25;;;1.30;;
66127;SDS011;52925;52.436;-1.952;2024-01-15T16:47:10;4.50;;;0.90;;
66127;SDS011;52925;52.436;-1.952;2024-01-15T16:48:31;2.90;;;1.20;;
66127;SDS011;52925;52.436;-1.952;2024-01-15T16:49:51;3.25;;;1.30;;
66127;SDS011;52925;52.436;-1.952;2024-01-15T16:51:12;1.55;;;1.00;;
66127;SDS011;52925;52.436;-1.952;2024-01-15T16:52:32;2.40;;;0.90;;
66127;SDS011;52925;52.436;-1.952;2024-01-15T16:53:53;4.35;;;1.17;;
66127;SDS011;52925;52.436;-1.952;2024-01-15T16:55:13;2.53;;;1.20;;
66127;SDS011;52925;52.436;-1.952;2024-01-15T16:56:34;2.72;;;1.20;;
66127;SDS011;52925;52.436;-1.952;2024-01-15T16:57:55;2.72;;;1.20;;
66127;SDS011;52925;52.436;-1.952;2024-01-15T16:59:15;3.83;;;1.20;;
66127;SDS011;52925;52.436;-1.952;2024-01-15T17:00:38;2.60;;;1.30;;
66127;SDS011;52925;52.436;-1.952;2024-01-15T17:01:58;2.65;;;1.17;;
66127;SDS011;52925;52.436;-1.952;2024-01-15T17:03:19;3.95;;;1.48;;
66127;SDS011;52925;52.436;-1.952;2024-01-15T17:04:39;2.72;;;1.10;;
66127;SDS011;52925;52.436;-1.952;2024-01-15T17:06:00;3.17;;;1.13;;
66127;SDS011;52925;52.436;-1.952;2024-01-15T17:07:21;4.25;;;1.33;;
66127;SDS011;52925;52.436;-1.952;2024-01-15T17:08:41;2.25;;;1.35;;
66127;SDS011;52925;52.436;-1.952;2024-01-15T17:10:01;2.65;;;1.40;;
66127;SDS011;52925;52.436;-1.952;2024-01-15T17:11:22;3.60;;;1.38;;
66127;SDS011;52925;52.436;-1.952;2024-01-15T17:12:42;2.85;;;1.23;;
66127;SDS011;52925;52.436;-1.952;2024-01-15T17:14:03;2.85;;;1.23;;
66127;SDS011;52925;52.436;-1.952;2024-01-15T17:15:23;3.45;;;1.42;;
66127;SDS011;52925;52.436;-1.952;2024-01-15T17:16:45;2.50;;;1.17;;
66127;SDS011;52925;52.436;-1.952;2024-01-15T17:18:05;3.60;;;1.52;;
66127;SDS011;52925;52.436;-1.952;2024-01-15T17:19:26;5.30;;;1.58;;
66127;SDS011;52925;52.436;-1.952;2024-01-15T17:20:46;2.92;;;1.23;;
66127;SDS011;52925;52.436;-1.952;2024-01-15T17:22:07;2.38;;;1.27;;
66127;SDS011;52925;52.436;-1.952;2024-01-15T17:23:27;2.47;;;1.00;;
66127;SDS011;52925;52.436;-1.952;2024-01-15T17:24:48;3.28;;;1.70;;
66127;SDS011;52925;52.436;-1.952;2024-01-15T17:26:08;3.58;;;1.40;;
66127;SDS011;52925;52.436;-1.952;2024-01-15T17:27:29;4.07;;;1.42;;
66127;SDS011;52925;52.436;-1.952;2024-01-15T17:28:49;2.97;;;1.40;;
66127;SDS011;52925;52.436;-1.952;2024-01-15T17:30:10;3.15;;;1.50;;
66127;SDS011;52925;52.436;-1.952;2024-01-15T17:31:30;2.08;;;1.10;;
66127;SDS011;52925;52.436;-1.952;2024-01-15T17:32:53;3.10;;;1.42;;
66127;SDS011;52925;52.436;-1.952;2024-01-15T17:34:13;3.78;;;1.30;;
66127;SDS011;52925;52.436;-1.952;2024-01-15T17:35:33;2.95;;;1.45;;
66127;SDS011;52925;52.436;-1.952;2024-01-15T17:36:53;2.72;;;1.63;;
66127;SDS011;52925;52.436;-1.952;2024-01-15T17:38:13;3.03;;;1.95;;
66127;SDS011;52925;52.436;-1.952;2024-01-15T17:39:34;6.55;;;2.17;;
66127;SDS011;52925;52.436;-1.952;2024-01-15T17:40:55;5.25;;;2.00;;
66127;SDS011;52925;52.436;-1.952;2024-01-15T17:42:16;4.38;;;1.90;;
66127;SDS011;52925;52.436;-1.952;2024-01-15T17:43:38;3.92;;;2.10;;
66127;SDS011;52925;52.436;-1.952;2024-01-15T17:44:58;5.88;;;2.88;;
66127;SDS011;52925;52.436;-1.952;2024-01-15T17:46:18;3.78;;;2.10;;
66127;SDS011;52925;52.436;-1.952;2024-01-15T17:47:39;5.13;;;2.78;;
66127;SDS011;52925;52.436;-1.952;2024-01-15T17:49:01;5.70;;;3.10;;
66127;SDS011;52925;52.436;-1.952;2024-01-15T17:50:22;5.07;;;2.75;;
66127;SDS011;52925;52.436;-1.952;2024-01-15T17:51:42;7.32;;;3.60;;
66127;SDS011;52925;52.436;-1.952;2024-01-15T17:53:03;6.55;;;3.15;;
66127;SDS011;52925;52.436;-1.952;2024-01-15T17:54:23;5.10;;;3.30;;
66127;SDS011;52925;52.436;-1.952;2024-01-15T17:55:45;6.55;;;3.20;;
66127;SDS011;52925;52.436;-1.952;2024-01-15T17:57:05;6.95;;;3.10;;
66127;SDS011;52925;52.436;-1.952;2024-01-15T17:58:26;6.35;;;3.40;;
66127;SDS011;52925;52.436;-1.952;2024-01-15T17:59:46;7.80;;;2.95;;
66127;SDS011;52925;52.436;-1.952;2024-01-15T18:01:07;4.72;;;2.80;;
66127;SDS011;52925;52.436;-1.952;2024-01-15T18:02:27;8.02;;;2.90;;
66127;SDS011;52925;52.436;-1.952;2024-01-15T18:03:48;4.95;;;2.95;;
66127;SDS011;52925;52.436;-1.952;2024-01-15T18:05:10;5.60;;;2.70;;
66127;SDS011;52925;52.436;-1.952;2024-01-15T18:06:31;5.10;;;2.83;;
66127;SDS011;52925;52.436;-1.952;2024-01-15T18:07:51;7.07;;;3.17;;
66127;SDS011;52925;52.436;-1.952;2024-01-15T18:09:12;6.60;;;3.10;;
66127;SDS011;52925;52.436;-1.952;2024-01-15T18:10:35;6.25;;;3.10;;
66127;SDS011;52925;52.436;-1.952;2024-01-15T18:11:56;5.70;;;3.33;;
66127;SDS011;52925;52.436;-1.952;2024-01-15T18:13:19;7.18;;;3.33;;
66127;SDS011;52925;52.436;-1.952;2024-01-15T18:14:41;7.20;;;3.65;;
66127;SDS011;52925;52.436;-1.952;2024-01-15T18:16:02;7.28;;;3.13;;
66127;SDS011;52925;52.436;-1.952;2024-01-15T18:17:22;6.05;;;3.20;;
66127;SDS011;52925;52.436;-1.952;2024-01-15T18:18:45;6.20;;;3.20;;
66127;SDS011;52925;52.436;-1.952;2024-01-15T18:20:05;6.72;;;3.40;;
66127;SDS011;52925;52.436;-1.952;2024-01-15T18:21:29;7.15;;;3.30;;
66127;SDS011;52925;52.436;-1.952;2024-01-15T18:22:48;6.97;;;3.72;;
66127;SDS011;52925;52.436;-1.952;2024-01-15T18:24:09;9.77;;;4.05;;
66127;SDS011;52925;52.436;-1.952;2024-01-15T18:25:29;5.63;;;3.25;;
66127;SDS011;52925;52.436;-1.952;2024-01-15T18:26:51;6.95;;;3.42;;
66127;SDS011;52925;52.436;-1.952;2024-01-15T18:28:11;7.10;;;3.40;;
66127;SDS011;52925;52.436;-1.952;2024-01-15T18:29:33;8.52;;;3.90;;
66127;SDS011;52925;52.436;-1.952;2024-01-15T18:30:53;7.75;;;3.63;;
66127;SDS011;52925;52.436;-1.952;2024-01-15T18:32:14;7.03;;;3.67;;
66127;SDS011;52925;52.436;-1.952;2024-01-15T18:33:35;5.85;;;3.55;;
66127;SDS011;52925;52.436;-1.952;2024-01-15T18:34:56;7.00;;;3.67;;
66127;SDS011;52925;52.436;-1.952;2024-01-15T18:36:15;6.53;;;3.55;;
66127;SDS011;52925;52.436;-1.952;2024-01-15T18:37:38;7.78;;;3.75;;
66127;SDS011;52925;52.436;-1.952;2024-01-15T18:38:57;7.07;;;3.65;;
66127;SDS011;52925;52.436;-1.952;2024-01-15T18:40:24;7.10;;;4.18;;
66127;SDS011;52925;52.436;-1.952;2024-01-15T18:41:44;6.85;;;3.55;;
66127;SDS011;52925;52.436;-1.952;2024-01-15T18:43:05;8.43;;;3.97;;
66127;SDS011;52925;52.436;-1.952;2024-01-15T18:44:25;7.63;;;3.85;;
66127;SDS011;52925;52.436;-1.952;2024-01-15T18:45:47;6.38;;;3.70;;
66127;SDS011;52925;52.436;-1.952;2024-01-15T18:47:06;7.95;;;3.92;;
66127;SDS011;52925;52.436;-1.952;2024-01-15T18:48:27;9.18;;;4.07;;
66127;SDS011;52925;52.436;-1.952;2024-01-15T18:49:47;7.55;;;4.10;;
66127;SDS011;52925;52.436;-1.952;2024-01-15T18:51:08;9.63;;;4.70;;
66127;SDS011;52925;52.436;-1.952;2024-01-15T18:52:28;8.25;;;4.28;;
66127;SDS011;52925;52.436;-1.952;2024-01-15T18:53:50;7.32;;;4.00;;
66127;SDS011;52925;52.436;-1.952;2024-01-15T18:55:10;8.43;;;3.90;;
66127;SDS011;52925;52.436;-1.952;2024-01-15T18:56:33;8.18;;;4.38;;
66127;SDS011;52925;52.436;-1.952;2024-01-15T18:57:58;9.93;;;4.30;;
66127;SDS011;52925;52.436;-1.952;2024-01-15T18:59:19;8.20;;;3.65;;
66127;SDS011;52925;52.436;-1.952;2024-01-15T19:00:39;7.25;;;4.00;;
66127;SDS011;52925;52.436;-1.952;2024-01-15T19:02:01;6.90;;;3.90;;
66127;SDS011;52925;52.436;-1.952;2024-01-15T19:03:21;8.65;;;4.10;;
66127;SDS011;52925;52.436;-1.952;2024-01-15T19:04:42;10.45;;;4.25;;
66127;SDS011;52925;52.436;-1.952;2024-01-15T19:06:03;8.30;;;4.63;;
66127;SDS011;52925;52.436;-1.952;2024-01-15T19:07:25;7.75;;;4.05;;
66127;SDS011;52925;52.436;-1.952;2024-01-15T19:08:44;7.97;;;4.00;;
66127;SDS011;52925;52.436;-1.952;2024-01-15T19:10:07;8.68;;;4.45;;
66127;SDS011;52925;52.436;-1.952;2024-01-15T19:11:27;6.63;;;3.90;;
66127;SDS011;52925;52.436;-1.952;2024-01-15T19:12:48;12.73;;;4.93;;
66127;SDS011;52925;52.436;-1.952;2024-01-15T19:14:08;8.43;;;4.18;;
66127;SDS011;52925;52.436;-1.952;2024-01-15T19:15:29;9.98;;;4.13;;
66127;SDS011;52925;52.436;-1.952;2024-01-15T19:16:49;8.15;;;4.07;;
66127;SDS011;52925;52.436;-1.952;2024-01-15T19:18:10;7.05;;;4.20;;
66127;SDS011;52925;52.436;-1.952;2024-01-15T19:19:30;10.07;;;4.55;;
66127;SDS011;52925;52.436;-1.952;2024-01-15T19:20:55;9.23;;;4.85;;
66127;SDS011;52925;52.436;-1.952;2024-01-15T19:22:15;8.15;;;4.22;;
66127;SDS011;52925;52.436;-1.952;2024-01-15T19:23:36;10.40;;;4.50;;
66127;SDS011;52925;52.436;-1.952;2024-01-15T19:24:56;10.45;;;5.05;;
66127;SDS011;52925;52.436;-1.952;2024-01-15T19:26:18;7.70;;;4.22;;
66127;SDS011;52925;52.436;-1.952;2024-01-15T19:27:39;9.70;;;4.40;;
66127;SDS011;52925;52.436;-1.952;2024-01-15T19:29:03;8.75;;;4.13;;
66127;SDS011;52925;52.436;-1.952;2024-01-15T19:30:22;11.13;;;4.53;;
66127;SDS011;52925;52.436;-1.952;2024-01-15T19:31:43;7.32;;;4.22;;
66127;SDS011;52925;52.436;-1.952;2024-01-15T19:33:03;9.63;;;4.35;;
66127;SDS011;52925;52.436;-1.952;2024-01-15T19:34:24;8.20;;;4.32;;
66127;SDS011;52925;52.436;-1.952;2024-01-15T19:35:44;6.65;;;4.25;;
66127;SDS011;52925;52.436;-1.952;2024-01-15T19:37:05;6.97;;;4.53;;
66127;SDS011;52925;52.436;-1.952;2024-01-15T19:38:25;9.07;;;4.20;;
66127;SDS011;52925;52.436;-1.952;2024-01-15T19:39:47;7.95;;;4.28;;
66127;SDS011;52925;52.436;-1.952;2024-01-15T19:41:06;9.80;;;4.82;;
66127;SDS011;52925;52.436;-1.952;2024-01-15T19:42:29;8.77;;;4.75;;
66127;SDS011;52925;52.436;-1.952;2024-01-15T19:43:49;10.63;;;4.80;;
66127;SDS011;52925;52.436;-1.952;2024-01-15T19:45:09;8.57;;;4.60;;
66127;SDS011;52925;52.436;-1.952;2024-01-15T19:46:29;9.18;;;4.70;;
66127;SDS011;52925;52.436;-1.952;2024-01-15T19:47:53;11.20;;;5.22;;
66127;SDS011;52925;52.436;-1.952;2024-01-15T19:49:13;12.95;;;4.93;;
66127;SDS011;52925;52.436;-1.952;2024-01-15T19:50:34;9.95;;;4.47;;
66127;SDS011;52925;52.436;-1.952;2024-01-15T19:51:54;8.15;;;4.72;;
66127;SDS011;52925;52.436;-1.952;2024-01-15T19:53:15;11.23;;;4.55;;
66127;SDS011;52925;52.436;-1.952;2024-01-15T19:54:35;9.18;;;4.57;;
66127;SDS011;52925;52.436;-1.952;2024-01-15T19:55:56;8.57;;;4.63;;
66127;SDS011;52925;52.436;-1.952;2024-01-15T19:57:16;7.93;;;4.63;;
66127;SDS011;52925;52.436;-1.952;2024-01-15T19:58:39;9.93;;;4.85;;
66127;SDS011;52925;52.436;-1.952;2024-01-15T20:00:00;8.25;;;5.05;;
66127;SDS011;52925;52.436;-1.952;2024-01-15T20:01:21;9.77;;;5.80;;
66127;SDS011;52925;52.436;-1.952;2024-01-15T20:02:41;8.65;;;5.20;;
66127;SDS011;52925;52.436;-1.952;2024-01-15T20:04:01;9.80;;;5.15;;
66127;SDS011;52925;52.436;-1.952;2024-01-15T20:05:23;9.18;;;5.10;;
66127;SDS011;52925;52.436;-1.952;2024-01-15T20:06:43;11.95;;;5.68;;
66127;SDS011;52925;52.436;-1.952;2024-01-15T20:08:04;9.35;;;4.95;;
66127;SDS011;52925;52.436;-1.952;2024-01-15T20:09:25;12.55;;;5.75;;
66127;SDS011;52925;52.436;-1.952;2024-01-15T20:10:45;8.75;;;4.93;;
66127;SDS011;52925;52.436;-1.952;2024-01-15T20:12:06;10.10;;;5.03;;
66127;SDS011;52925;52.436;-1.952;2024-01-15T20:13:26;9.35;;;5.70;;
66127;SDS011;52925;52.436;-1.952;2024-01-15T20:14:48;10.85;;;4.90;;
66127;SDS011;52925;52.436;-1.952;2024-01-15T20:16:10;9.38;;;4.90;;
66127;SDS011;52925;52.436;-1.952;2024-01-15T20:17:32;8.32;;;5.40;;
66127;SDS011;52925;52.436;-1.952;2024-01-15T20:18:51;8.70;;;5.30;;
66127;SDS011;52925;52.436;-1.952;2024-01-15T20:20:12;11.07;;;5.80;;
66127;SDS011;52925;52.436;-1.952;2024-01-15T20:21:32;9.02;;;5.65;;
66127;SDS011;52925;52.436;-1.952;2024-01-15T20:22:55;8.50;;;4.78;;
66127;SDS011;52925;52.436;-1.952;2024-01-15T20:24:15;10.05;;;5.63;;
66127;SDS011;52925;52.436;-1.952;2024-01-15T20:25:38;9.48;;;4.97;;
66127;SDS011;52925;52.436;-1.952;2024-01-15T20:26:58;10.98;;;6.03;;
66127;SDS011;52925;52.436;-1.952;2024-01-15T20:28:19;8.90;;;5.05;;
66127;SDS011;52925;52.436;-1.952;2024-01-15T20:29:39;8.95;;;5.13;;
66127;SDS011;52925;52.436;-1.952;2024-01-15T20:31:02;10.43;;;5.20;;
66127;SDS011;52925;52.436;-1.952;2024-01-15T20:32:21;11.65;;;5.90;;
66127;SDS011;52925;52.436;-1.952;2024-01-15T20:33:42;9.65;;;5.88;;
66127;SDS011;52925;52.436;-1.952;2024-01-15T20:35:02;8.77;;;5.70;;
66127;SDS011;52925;52.436;-1.952;2024-01-15T20:36:24;8.38;;;5.32;;
66127;SDS011;52925;52.436;-1.952;2024-01-15T20:37:45;10.13;;;5.90;;
66127;SDS011;52925;52.436;-1.952;2024-01-15T20:39:06;9.00;;;6.10;;
66127;SDS011;52925;52.436;-1.952;2024-01-15T20:40:25;9.85;;;5.43;;
66127;SDS011;52925;52.436;-1.952;2024-01-15T20:41:46;9.35;;;5.80;;
66127;SDS011;52925;52.436;-1.952;2024-01-15T20:43:06;8.13;;;5.28;;
66127;SDS011;52925;52.436;-1.952;2024-01-15T20:44:27;9.65;;;5.63;;
66127;SDS011;52925;52.436;-1.952;2024-01-15T20:45:47;10.90;;;5.32;;
66127;SDS011;52925;52.436;-1.952;2024-01-15T20:47:09;9.00;;;5.25;;
66127;SDS011;52925;52.436;-1.952;2024-01-15T20:48:29;10.05;;;6.00;;
66127;SDS011;52925;52.436;-1.952;2024-01-15T20:49:50;10.88;;;5.80;;
66127;SDS011;52925;52.436;-1.952;2024-01-15T20:51:09;9.10;;;5.93;;
66127;SDS011;52925;52.436;-1.952;2024-01-15T20:52:30;9.77;;;5.20;;
66127;SDS011;52925;52.436;-1.952;2024-01-15T20:53:50;8.05;;;5.45;;
66127;SDS011;52925;52.436;-1.952;2024-01-15T20:55:12;10.88;;;5.53;;
66127;SDS011;52925;52.436;-1.952;2024-01-15T20:56:33;9.10;;;5.10;;
66127;SDS011;52925;52.436;-1.952;2024-01-15T20:57:54;8.85;;;4.90;;
66127;SDS011;52925;52.436;-1.952;2024-01-15T20:59:13;8.82;;;5.55;;
66127;SDS011;52925;52.436;-1.952;2024-01-15T21:00:34;8.85;;;5.00;;
66127;SDS011;52925;52.436;-1.952;2024-01-15T21:01:54;9.48;;;5.40;;
66127;SDS011;52925;52.436;-1.952;2024-01-15T21:03:16;8.13;;;5.00;;
66127;SDS011;52925;52.436;-1.952;2024-01-15T21:04:37;8.57;;;4.93;;
66127;SDS011;52925;52.436;-1.952;2024-01-15T21:05:57;9.00;;;5.28;;
66127;SDS011;52925;52.436;-1.952;2024-01-15T21:07:17;12.68;;;5.57;;
66127;SDS011;52925;52.436;-1.952;2024-01-15T21:08:38;8.90;;;5.25;;
66127;SDS011;52925;52.436;-1.952;2024-01-15T21:10:00;10.07;;;4.47;;
66127;SDS011;52925;52.436;-1.952;2024-01-15T21:11:21;7.75;;;3.90;;
66127;SDS011;52925;52.436;-1.952;2024-01-15T21:12:42;8.52;;;3.58;;
66127;SDS011;52925;52.436;-1.952;2024-01-15T21:14:02;10.48;;;3.70;;
66127;SDS011;52925;52.436;-1.952;2024-01-15T21:15:22;9.25;;;3.45;;
66127;SDS011;52925;52.436;-1.952;2024-01-15T21:16:43;7.18;;;3.65;;
66127;SDS011;52925;52.436;-1.952;2024-01-15T21:18:03;7.65;;;3.65;;
66127;SDS011;52925;52.436;-1.952;2024-01-15T21:19:25;10.55;;;3.70;;
66127;SDS011;52925;52.436;-1.952;2024-01-15T21:20:45;8.82;;;3.10;;
66127;SDS011;52925;52.436;-1.952;2024-01-15T21:22:06;6.88;;;3.35;;
66127;SDS011;52925;52.436;-1.952;2024-01-15T21:23:27;12.60;;;3.58;;
66127;SDS011;52925;52.436;-1.952;2024-01-15T21:24:49;7.15;;;3.17;;
66127;SDS011;52925;52.436;-1.952;2024-01-15T21:26:09;8.27;;;3.47;;
66127;SDS011;52925;52.436;-1.952;2024-01-15T21:27:29;4.63;;;2.72;;
66127;SDS011;52925;52.436;-1.952;2024-01-15T21:28:51;6.80;;;3.10;;
66127;SDS011;52925;52.436;-1.952;2024-01-15T21:30:12;5.40;;;2.70;;
66127;SDS011;52925;52.436;-1.952;2024-01-15T21:31:36;7.78;;;3.08;;
66127;SDS011;52925;52.436;-1.952;2024-01-15T21:32:57;5.65;;;2.95;;
66127;SDS011;52925;52.436;-1.952;2024-01-15T21:34:17;7.85;;;2.90;;
66127;SDS011;52925;52.436;-1.952;2024-01-15T21:35:41;5.25;;;2.63;;
66127;SDS011;52925;52.436;-1.952;2024-01-15T21:37:00;6.78;;;2.92;;
66127;SDS011;52925;52.436;-1.952;2024-01-15T21:38:21;5.22;;;2.80;;
66127;SDS011;52925;52.436;-1.952;2024-01-15T21:39:41;5.90;;;2.80;;
66127;SDS011;52925;52.436;-1.952;2024-01-15T21:41:03;5.10;;;2.40;;
66127;SDS011;52925;52.436;-1.952;2024-01-15T21:42:23;6.90;;;2.70;;
66127;SDS011;52925;52.436;-1.952;2024-01-15T21:43:44;7.30;;;2.97;;
66127;SDS011;52925;52.436;-1.952;2024-01-15T21:45:04;5.30;;;2.97;;
66127;SDS011;52925;52.436;-1.952;2024-01-15T21:46:26;7.13;;;3.10;;
66127;SDS011;52925;52.436;-1.952;2024-01-15T21:47:47;8.45;;;3.17;;
66127;SDS011;52925;52.436;-1.952;2024-01-15T21:49:08;5.20;;;2.92;;
66127;SDS011;52925;52.436;-1.952;2024-01-15T21:50:27;7.57;;;2.53;;
66127;SDS011;52925;52.436;-1.952;2024-01-15T21:51:51;6.40;;;3.03;;
66127;SDS011;52925;52.436;-1.952;2024-01-15T21:53:11;3.78;;;2.80;;
66127;SDS011;52925;52.436;-1.952;2024-01-15T21:54:35;6.95;;;2.80;;
66127;SDS011;52925;52.436;-1.952;2024-01-15T21:55:55;4.95;;;2.92;;
66127;SDS011;52925;52.436;-1.952;2024-01-15T21:57:16;5.55;;;3.03;;
66127;SDS011;52925;52.436;-1.952;2024-01-15T21:58:36;4.80;;;2.95;;
66127;SDS011;52925;52.436;-1.952;2024-01-15T21:59:57;4.35;;;2.90;;
66127;SDS011;52925;52.436;-1.952;2024-01-15T22:01:19;4.45;;;2.92;;
66127;SDS011;52925;52.436;-1.952;2024-01-15T22:02:40;4.95;;;2.95;;
66127;SDS011;52925;52.436;-1.952;2024-01-15T22:04:02;5.00;;;3.15;;
66127;SDS011;52925;52.436;-1.952;2024-01-15T22:05:23;7.45;;;3.30;;
66127;SDS011;52925;52.436;-1.952;2024-01-15T22:06:43;5.50;;;3.28;;
66127;SDS011;52925;52.436;-1.952;2024-01-15T22:08:05;7.60;;;3.55;;
66127;SDS011;52925;52.436;-1.952;2024-01-15T22:09:25;6.97;;;3.55;;
66127;SDS011;52925;52.436;-1.952;2024-01-15T22:10:46;6.47;;;3.28;;
66127;SDS011;52925;52.436;-1.952;2024-01-15T22:12:06;5.65;;;3.38;;
66127;SDS011;52925;52.436;-1.952;2024-01-15T22:13:27;8.48;;;3.58;;
66127;SDS011;52925;52.436;-1.952;2024-01-15T22:14:47;7.07;;;3.60;;
66127;SDS011;52925;52.436;-1.952;2024-01-15T22:16:10;6.97;;;3.53;;
66127;SDS011;52925;52.436;-1.952;2024-01-15T22:17:30;7.30;;;3.85;;
66127;SDS011;52925;52.436;-1.952;2024-01-15T22:18:51;7.75;;;3.70;;
66127;SDS011;52925;52.436;-1.952;2024-01-15T22:20:11;7.28;;;3.70;;
66127;SDS011;52925;52.436;-1.952;2024-01-15T22:21:32;8.52;;;4.07;;
66127;SDS011;52925;52.436;-1.952;2024-01-15T22:22:52;6.75;;;3.70;;
66127;SDS011;52925;52.436;-1.952;2024-01-15T22:24:14;7.07;;;3.58;;
66127;SDS011;52925;52.436;-1.952;2024-01-15T22:25:35;8.23;;;3.80;;
66127;SDS011;52925;52.436;-1.952;2024-01-15T22:26:55;6.38;;;3.88;;
66127;SDS011;52925;52.436;-1.952;2024-01-15T22:28:15;8.02;;;3.78;;
66127;SDS011;52925;52.436;-1.952;2024-01-15T22:29:36;8.93;;;4.10;;
66127;SDS011;52925;52.436;-1.952;2024-01-15T22:30:56;5.18;;;3.28;;
66127;SDS011;52925;52.436;-1.952;2024-01-15T22:32:17;7.20;;;3.90;;
66127;SDS011;52925;52.436;-1.952;2024-01-15T22:33:37;5.80;;;3.78;;
66127;SDS011;52925;52.436;-1.952;2024-01-15T22:34:57;8.77;;;3.80;;
66127;SDS011;52925;52.436;-1.952;2024-01-15T22:36:17;8.18;;;3.83;;
66127;SDS011;52925;52.436;-1.952;2024-01-15T22:37:38;8.85;;;3.92;;
66127;SDS011;52925;52.436;-1.952;2024-01-15T22:38:59;5.78;;;3.20;;
66127;SDS011;52925;52.436;-1.952;2024-01-15T22:40:22;11.18;;;3.90;;
66127;SDS011;52925;52.436;-1.952;2024-01-15T22:41:42;9.95;;;3.60;;
66127;SDS011;52925;52.436;-1.952;2024-01-15T22:43:02;7.50;;;3.72;;
66127;SDS011;52925;52.436;-1.952;2024-01-15T22:44:22;8.95;;;3.88;;
66127;SDS011;52925;52.436;-1.952;2024-01-15T22:45:43;7.32;;;3.35;;
66127;SDS011;52925;52.436;-1.952;2024-01-15T22:47:03;7.35;;;3.47;;
66127;SDS011;52925;52.436;-1.952;2024-01-15T22:48:24;8.30;;;3.60;;
66127;SDS011;52925;52.436;-1.952;2024-01-15T22:49:44;7.22;;;3.70;;
66127;SDS011;52925;52.436;-1.952;2024-01-15T22:51:05;6.97;;;3.50;;
66127;SDS011;52925;52.436;-1.952;2024-01-15T22:52:25;6.93;;;3.50;;
66127;SDS011;52925;52.436;-1.952;2024-01-15T22:53:46;6.50;;;3.67;;
66127;SDS011;52925;52.436;-1.952;2024-01-15T22:55:07;6.00;;;3.45;;
66127;SDS011;52925;52.436;-1.952;2024-01-15T22:56:29;7.50;;;3.65;;
66127;SDS011;52925;52.436;-1.952;2024-01-15T22:57:49;5.28;;;3.30;;
66127;SDS011;52925;52.436;-1.952;2024-01-15T22:59:10;7.88;;;3.95;;
66127;SDS011;52925;52.436;-1.952;2024-01-15T23:00:33;5.75;;;3.30;;
66127;SDS011;52925;52.436;-1.952;2024-01-15T23:01:54;6.85;;;3.70;;
66127;SDS011;52925;52.436;-1.952;2024-01-15T23:03:14;6.53;;;3.92;;
66127;SDS011;52925;52.436;-1.952;2024-01-15T23:04:36;6.65;;;3.38;;
66127;SDS011;52925;52.436;-1.952;2024-01-15T23:05:57;7.68;;;3.88;;
66127;SDS011;52925;52.436;-1.952;2024-01-15T23:07:18;6.35;;;3.60;;
66127;SDS011;52925;52.436;-1.952;2024-01-15T23:08:38;6.05;;;3.63;;
66127;SDS011;52925;52.436;-1.952;2024-01-15T23:09:59;7.18;;;3.55;;
66127;SDS011;52925;52.436;-1.952;2024-01-15T23:11:19;4.85;;;3.50;;
66127;SDS011;52925;52.436;-1.952;2024-01-15T23:12:41;8.15;;;3.95;;
66127;SDS011;52925;52.436;-1.952;2024-01-15T23:14:01;6.50;;;3.70;;
